sensor_id;sensor_type;location;lat;lon;timestamp;pressure;altitude;pressure_sealevel;temperature;humidity
3294;BME280;1659;51.470;6.770;2023-05-25T00:02:20;102319.13;;;10.85;67.70
3294;BME280;1659;51.470;6.770;2023-05-25T00:04:48;102319.97;;;10.81;68.02
3294;BME280;1659;51.470;6.770;2023-05-25T00:07:16;102317.28;;;10.78;68.18
3294;BME280;1659;51.470;6.770;2023-05-25T00:09:44;102314.66;;;10.73;68.12
3294;BME280;1659;51.470;6.770;2023-05-25T00:12:11;102316.38;;;10.68;68.25
3294;BME280;1659;51.470;6.770;2023-05-25T00:14:37;102312.84;;;10.65;68.34
3294;BME280;1659;51.470;6.770;2023-05-25T00:17:04;102307.50;;;10.60;68.69
3294;BME280;1659;51.470;6.770;2023-05-25T00:19:34;102309.25;;;10.56;68.73
3294;BME280;1659;51.470;6.770;2023-05-25T00:22:00;102308.38;;;10.54;68.71
3294;BME280;1659;51.470;6.770;2023-05-25T00:24:27;102306.59;;;10.52;68.72
3294;BME280;1659;51.470;6.770;2023-05-25T00:26:56;102302.19;;;10.51;68.92
3294;BME280;1659;51.470;6.770;2023-05-25T00:29:22;102307.44;;;10.49;68.85
3294;BME280;1659;51.470;6.770;2023-05-25T00:31:50;102304.78;;;10.46;69.20
3294;BME280;1659;51.470;6.770;2023-05-25T00:34:16;102304.75;;;10.45;69.02
3294;BME280;1659;51.470;6.770;2023-05-25T00:36:43;102307.41;;;10.42;69.08
3294;BME280;1659;51.470;6.770;2023-05-25T00:39:12;102306.50;;;10.39;69.09
3294;BME280;1659;51.470;6.770;2023-05-25T00:41:40;102302.97;;;10.37;69.49
3294;BME280;1659;51.470;6.770;2023-05-25T00:44:10;102308.25;;;10.37;69.34
3294;BME280;1659;51.470;6.770;2023-05-25T00:46:44;102315.31;;;10.38;69.41
3294;BME280;1659;51.470;6.770;2023-05-25T00:49:13;102309.16;;;10.38;69.35
3294;BME280;1659;51.470;6.770;2023-05-25T00:51:40;102307.38;;;10.37;69.75
3294;BME280;1659;51.470;6.770;2023-05-25T00:54:10;102310.88;;;10.36;69.63
3294;BME280;1659;51.470;6.770;2023-05-25T00:56:39;102310.00;;;10.37;69.91
3294;BME280;1659;51.470;6.770;2023-05-25T00:59:10;102305.59;;;10.36;69.64
3294;BME280;1659;51.470;6.770;2023-05-25T01:01:39;102311.78;;;10.36;69.91
3294;BME280;1659;51.470;6.770;2023-05-25T01:04:07;102304.72;;;10.35;69.81
3294;BME280;1659;51.470;6.770;2023-05-25T01:06:38;102314.41;;;10.35;70.00
3294;BME280;1659;51.470;6.770;2023-05-25T01:09:07;102314.38;;;10.32;69.89
3294;BME280;1659;51.470;6.770;2023-05-25T01:11:39;102312.56;;;10.29;70.24
3294;BME280;1659;51.470;6.770;2023-05-25T01:14:07;102310.78;;;10.27;70.41
3294;BME280;1659;51.470;6.770;2023-05-25T01:16:35;102318.69;;;10.24;70.37
3294;BME280;1659;51.470;6.770;2023-05-25T01:19:02;102321.31;;;10.22;70.38
3294;BME280;1659;51.470;6.770;2023-05-25T01:21:34;102323.06;;;10.20;70.51
3294;BME280;1659;51.470;6.770;2023-05-25T01:24:10;102320.41;;;10.20;70.43
3294;BME280;1659;51.470;6.770;2023-05-25T01:26:41;102323.94;;;10.17;70.52
3294;BME280;1659;51.470;6.770;2023-05-25T01:29:10;102321.25;;;10.14;70.52
3294;BME280;1659;51.470;6.770;2023-05-25T01:31:38;102324.75;;;10.13;70.77
3294;BME280;1659;51.470;6.770;2023-05-25T01:34:05;102322.13;;;10.10;70.78
3294;BME280;1659;51.470;6.770;2023-05-25T01:36:33;102330.00;;;10.07;70.74
3294;BME280;1659;51.470;6.770;2023-05-25T01:39:00;102325.59;;;10.03;71.03
3294;BME280;1659;51.470;6.770;2023-05-25T01:41:27;102325.53;;;9.98;71.04
3294;BME280;1659;51.470;6.770;2023-05-25T01:43:53;102338.69;;;9.95;71.33
3294;BME280;1659;51.470;6.770;2023-05-25T01:46:25;102329.00;;;9.93;71.43
3294;BME280;1659;51.470;6.770;2023-05-25T01:49:04;102327.22;;;9.90;71.66
3294;BME280;1659;51.470;6.770;2023-05-25T01:51:39;102337.75;;;9.86;71.36
3294;BME280;1659;51.470;6.770;2023-05-25T01:54:10;102349.13;;;9.81;71.75
3294;BME280;1659;51.470;6.770;2023-05-25T01:56:38;102344.69;;;9.76;71.83
3294;BME280;1659;51.470;6.770;2023-05-25T01:59:07;102356.09;;;9.73;72.01
3294;BME280;1659;51.470;6.770;2023-05-25T02:01:35;102343.72;;;9.69;71.89
3294;BME280;1659;51.470;6.770;2023-05-25T02:04:02;102345.47;;;9.66;72.28
3294;BME280;1659;51.470;6.770;2023-05-25T02:06:29;102345.41;;;9.62;71.82
3294;BME280;1659;51.470;6.770;2023-05-25T02:08:57;102341.00;;;9.60;72.13
3294;BME280;1659;51.470;6.770;2023-05-25T02:11:23;102343.59;;;9.55;72.16
3294;BME280;1659;51.470;6.770;2023-05-25T02:13:50;102341.75;;;9.50;72.52
3294;BME280;1659;51.470;6.770;2023-05-25T02:16:17;102340.84;;;9.46;72.53
3294;BME280;1659;51.470;6.770;2023-05-25T02:18:43;102339.94;;;9.42;72.34
3294;BME280;1659;51.470;6.770;2023-05-25T02:21:10;102341.66;;;9.39;72.71
3294;BME280;1659;51.470;6.770;2023-05-25T02:23:37;102338.13;;;9.37;72.84
3294;BME280;1659;51.470;6.770;2023-05-25T02:26:05;102339.81;;;9.35;72.58
3294;BME280;1659;51.470;6.770;2023-05-25T02:28:31;102344.19;;;9.30;72.80
3294;BME280;1659;51.470;6.770;2023-05-25T02:30:58;102347.63;;;9.25;72.45
3294;BME280;1659;51.470;6.770;2023-05-25T02:33:24;102342.34;;;9.21;73.20
3294;BME280;1659;51.470;6.770;2023-05-25T02:35:51;102346.66;;;9.17;72.87
3294;BME280;1659;51.470;6.770;2023-05-25T02:38:17;102348.38;;;9.15;73.36
3294;BME280;1659;51.470;6.770;2023-05-25T02:40:44;102348.38;;;9.14;73.38
3294;BME280;1659;51.470;6.770;2023-05-25T02:43:12;102340.47;;;9.12;73.17
3294;BME280;1659;51.470;6.770;2023-05-25T02:45:39;102340.47;;;9.12;73.05
3294;BME280;1659;51.470;6.770;2023-05-25T02:48:05;102342.16;;;9.10;73.04
3294;BME280;1659;51.470;6.770;2023-05-25T02:50:32;102337.78;;;9.09;73.28
3294;BME280;1659;51.470;6.770;2023-05-25T02:52:58;102333.31;;;9.05;73.49
3294;BME280;1659;51.470;6.770;2023-05-25T02:55:25;102338.56;;;9.02;73.23
3294;BME280;1659;51.470;6.770;2023-05-25T02:57:52;102336.75;;;8.98;73.33
3294;BME280;1659;51.470;6.770;2023-05-25T03:00:20;102339.34;;;8.95;73.42
3294;BME280;1659;51.470;6.770;2023-05-25T03:02:46;102343.69;;;8.91;73.62
3294;BME280;1659;51.470;6.770;2023-05-25T03:05:14;102341.03;;;8.88;73.47
3294;BME280;1659;51.470;6.770;2023-05-25T03:07:41;102348.88;;;8.85;73.39
3294;BME280;1659;51.470;6.770;2023-05-25T03:10:08;102346.22;;;8.83;73.48
3294;BME280;1659;51.470;6.770;2023-05-25T03:12:35;102349.72;;;8.82;73.96
3294;BME280;1659;51.470;6.770;2023-05-25T03:15:01;102358.53;;;8.83;73.96
3294;BME280;1659;51.470;6.770;2023-05-25T03:17:29;102348.81;;;8.80;73.66
3294;BME280;1659;51.470;6.770;2023-05-25T03:19:56;102354.06;;;8.77;73.88
3294;BME280;1659;51.470;6.770;2023-05-25T03:22:23;102354.88;;;8.75;74.07
3294;BME280;1659;51.470;6.770;2023-05-25T03:24:50;102356.59;;;8.71;73.92
3294;BME280;1659;51.470;6.770;2023-05-25T03:27:17;102358.31;;;8.67;73.98
3294;BME280;1659;51.470;6.770;2023-05-25T03:29:44;102373.22;;;8.65;74.06
3294;BME280;1659;51.470;6.770;2023-05-25T03:32:10;102367.88;;;8.62;74.32
3294;BME280;1659;51.470;6.770;2023-05-25T03:34:38;102382.78;;;8.60;74.17
3294;BME280;1659;51.470;6.770;2023-05-25T03:37:05;102381.91;;;8.60;74.09
3294;BME280;1659;51.470;6.770;2023-05-25T03:39:31;102381.88;;;8.58;74.52
3294;BME280;1659;51.470;6.770;2023-05-25T03:41:58;102389.78;;;8.58;74.58
3294;BME280;1659;51.470;6.770;2023-05-25T03:44:25;102392.38;;;8.55;74.81
3294;BME280;1659;51.470;6.770;2023-05-25T03:46:51;102398.53;;;8.56;74.46
3294;BME280;1659;51.470;6.770;2023-05-25T03:49:18;102399.44;;;8.56;74.52
3294;BME280;1659;51.470;6.770;2023-05-25T03:51:46;102394.16;;;8.56;74.31
3294;BME280;1659;51.470;6.770;2023-05-25T03:54:12;102388.88;;;8.58;74.17
3294;BME280;1659;51.470;6.770;2023-05-25T03:56:39;102388.88;;;8.58;74.43
3294;BME280;1659;51.470;6.770;2023-05-25T03:59:06;102395.97;;;8.60;74.96
3294;BME280;1659;51.470;6.770;2023-05-25T04:01:32;102395.13;;;8.63;75.04
3294;BME280;1659;51.470;6.770;2023-05-25T04:04:02;102407.47;;;8.65;74.35
3294;BME280;1659;51.470;6.770;2023-05-25T04:06:28;102402.25;;;8.68;74.71
3294;BME280;1659;51.470;6.770;2023-05-25T04:08:56;102404.91;;;8.72;74.92
3294;BME280;1659;51.470;6.770;2023-05-25T04:11:23;102409.38;;;8.76;74.48
3294;BME280;1659;51.470;6.770;2023-05-25T04:13:50;102403.25;;;8.77;74.94
3294;BME280;1659;51.470;6.770;2023-05-25T04:16:16;102402.41;;;8.79;74.72
3294;BME280;1659;51.470;6.770;2023-05-25T04:18:43;102404.22;;;8.83;74.57
3294;BME280;1659;51.470;6.770;2023-05-25T04:21:09;102406.91;;;8.86;74.99
3294;BME280;1659;51.470;6.770;2023-05-25T04:23:36;102402.56;;;8.90;74.73
3294;BME280;1659;51.470;6.770;2023-05-25T04:26:04;102408.78;;;8.94;74.42
3294;BME280;1659;51.470;6.770;2023-05-25T04:28:34;102400.88;;;8.95;74.92
3294;BME280;1659;51.470;6.770;2023-05-25T04:31:02;102400.03;;;8.99;74.61
3294;BME280;1659;51.470;6.770;2023-05-25T04:33:29;102407.16;;;9.03;75.15
3294;BME280;1659;51.470;6.770;2023-05-25T04:35:55;102407.19;;;9.08;74.87
3294;BME280;1659;51.470;6.770;2023-05-25T04:38:23;102408.13;;;9.12;74.91
3294;BME280;1659;51.470;6.770;2023-05-25T04:40:50;102412.59;;;9.17;74.66
3294;BME280;1659;51.470;6.770;2023-05-25T04:43:19;102413.56;;;9.24;74.71
3294;BME280;1659;51.470;6.770;2023-05-25T04:45:46;102420.69;;;9.30;74.63
3294;BME280;1659;51.470;6.770;2023-05-25T04:48:12;102422.53;;;9.35;74.89
3294;BME280;1659;51.470;6.770;2023-05-25T04:50:39;102419.09;;;9.42;74.75
3294;BME280;1659;51.470;6.770;2023-05-25T04:53:06;102422.72;;;9.52;75.02
3294;BME280;1659;51.470;6.770;2023-05-25T04:55:32;102422.81;;;9.58;74.56
3294;BME280;1659;51.470;6.770;2023-05-25T04:57:59;102426.44;;;9.67;74.94
3294;BME280;1659;51.470;6.770;2023-05-25T05:00:27;102432.69;;;9.76;74.42
3294;BME280;1659;51.470;6.770;2023-05-25T05:02:54;102443.34;;;9.87;74.59
3294;BME280;1659;51.470;6.770;2023-05-25T05:05:21;102447.84;;;9.96;74.29
3294;BME280;1659;51.470;6.770;2023-05-25T05:07:48;102450.59;;;10.04;74.66
3294;BME280;1659;51.470;6.770;2023-05-25T05:10:16;102445.41;;;10.13;74.57
3294;BME280;1659;51.470;6.770;2023-05-25T05:12:42;102446.38;;;10.23;74.45
3294;BME280;1659;51.470;6.770;2023-05-25T05:15:09;102442.13;;;10.35;74.79
3294;BME280;1659;51.470;6.770;2023-05-25T05:17:37;102440.47;;;10.48;75.12
3294;BME280;1659;51.470;6.770;2023-05-25T05:20:05;102443.28;;;10.68;75.10
3294;BME280;1659;51.470;6.770;2023-05-25T05:22:32;102448.75;;;10.91;74.91
3294;BME280;1659;51.470;6.770;2023-05-25T05:24:58;102451.72;;;11.47;74.71
3294;BME280;1659;51.470;6.770;2023-05-25T05:27:25;102451.09;;;12.34;72.67
3294;BME280;1659;51.470;6.770;2023-05-25T05:29:52;102445.75;;;13.03;71.74
3294;BME280;1659;51.470;6.770;2023-05-25T05:32:18;102439.41;;;13.62;70.66
3294;BME280;1659;51.470;6.770;2023-05-25T05:34:46;102451.53;;;14.12;69.60
3294;BME280;1659;51.470;6.770;2023-05-25T05:37:13;102446.75;;;14.60;68.50
3294;BME280;1659;51.470;6.770;2023-05-25T05:39:39;102458.69;;;15.09;67.82
3294;BME280;1659;51.470;6.770;2023-05-25T05:42:06;102455.56;;;15.52;66.96
3294;BME280;1659;51.470;6.770;2023-05-25T05:44:33;102460.44;;;15.89;66.23
3294;BME280;1659;51.470;6.770;2023-05-25T05:47:00;102453.72;;;16.22;65.48
3294;BME280;1659;51.470;6.770;2023-05-25T05:49:28;102457.88;;;16.40;65.18
3294;BME280;1659;51.470;6.770;2023-05-25T05:51:56;102460.03;;;16.71;64.73
3294;BME280;1659;51.470;6.770;2023-05-25T05:54:22;102474.38;;;17.17;63.93
3294;BME280;1659;51.470;6.770;2023-05-25T05:56:49;102471.91;;;17.51;63.25
3294;BME280;1659;51.470;6.770;2023-05-25T05:59:16;102467.19;;;17.64;62.89
3294;BME280;1659;51.470;6.770;2023-05-25T06:01:42;102468.47;;;17.90;62.33
3294;BME280;1659;51.470;6.770;2023-05-25T06:04:09;102473.38;;;18.08;61.83
3294;BME280;1659;51.470;6.770;2023-05-25T06:06:35;102469.41;;;18.26;61.09
3294;BME280;1659;51.470;6.770;2023-05-25T06:09:04;102465.41;;;18.44;61.19
3294;BME280;1659;51.470;6.770;2023-05-25T06:11:31;102469.56;;;18.56;60.63
3294;BME280;1659;51.470;6.770;2023-05-25T06:13:57;102460.47;;;18.63;60.26
3294;BME280;1659;51.470;6.770;2023-05-25T06:16:24;102468.19;;;18.76;59.75
3294;BME280;1659;51.470;6.770;2023-05-25T06:18:51;102464.19;;;18.92;59.24
3294;BME280;1659;51.470;6.770;2023-05-25T06:21:17;102473.53;;;19.12;59.32
3294;BME280;1659;51.470;6.770;2023-05-25T06:23:44;102468.75;;;19.54;58.41
3294;BME280;1659;51.470;6.770;2023-05-25T06:26:13;102468.78;;;19.84;57.48
3294;BME280;1659;51.470;6.770;2023-05-25T06:28:39;102467.69;;;19.90;57.15
3294;BME280;1659;51.470;6.770;2023-05-25T06:31:06;102474.75;;;19.94;56.71
3294;BME280;1659;51.470;6.770;2023-05-25T06:33:33;102469.13;;;20.02;56.46
3294;BME280;1659;51.470;6.770;2023-05-25T06:35:59;102472.34;;;20.41;55.78
3294;BME280;1659;51.470;6.770;2023-05-25T06:38:26;102468.59;;;20.73;55.21
3294;BME280;1659;51.470;6.770;2023-05-25T06:40:53;102469.56;;;20.98;54.67
3294;BME280;1659;51.470;6.770;2023-05-25T06:43:21;102481.75;;;21.08;54.25
3294;BME280;1659;51.470;6.770;2023-05-25T06:45:48;102483.88;;;21.23;53.93
3294;BME280;1659;51.470;6.770;2023-05-25T06:48:14;102479.63;;;21.41;53.58
3294;BME280;1659;51.470;6.770;2023-05-25T06:50:41;102475.75;;;21.74;52.96
3294;BME280;1659;51.470;6.770;2023-05-25T06:53:07;102480.31;;;21.95;52.47
3294;BME280;1659;51.470;6.770;2023-05-25T06:55:35;102478.31;;;22.00;52.38
3294;BME280;1659;51.470;6.770;2023-05-25T06:58:01;102481.91;;;21.99;52.41
3294;BME280;1659;51.470;6.770;2023-05-25T07:00:29;102490.31;;;22.14;52.46
3294;BME280;1659;51.470;6.770;2023-05-25T07:02:56;102496.81;;;21.86;52.72
3294;BME280;1659;51.470;6.770;2023-05-25T07:05:22;102494.34;;;21.56;53.43
3294;BME280;1659;51.470;6.770;2023-05-25T07:07:49;102498.25;;;21.22;53.89
3294;BME280;1659;51.470;6.770;2023-05-25T07:10:15;102501.34;;;20.56;54.83
3294;BME280;1659;51.470;6.770;2023-05-25T07:12:42;102506.47;;;20.37;55.20
3294;BME280;1659;51.470;6.770;2023-05-25T07:15:10;102509.31;;;19.73;56.25
3294;BME280;1659;51.470;6.770;2023-05-25T07:17:38;102511.19;;;19.05;57.28
3294;BME280;1659;51.470;6.770;2023-05-25T07:20:06;102510.53;;;18.60;58.46
3294;BME280;1659;51.470;6.770;2023-05-25T07:22:33;102506.09;;;18.21;58.86
3294;BME280;1659;51.470;6.770;2023-05-25T07:25:00;102515.78;;;17.85;59.24
3294;BME280;1659;51.470;6.770;2023-05-25T07:27:28;102512.94;;;17.49;59.81
3294;BME280;1659;51.470;6.770;2023-05-25T07:29:55;102521.72;;;17.55;59.88
3294;BME280;1659;51.470;6.770;2023-05-25T07:32:22;102517.91;;;18.50;57.50
3294;BME280;1659;51.470;6.770;2023-05-25T07:34:50;102511.66;;;19.21;55.99
3294;BME280;1659;51.470;6.770;2023-05-25T07:37:16;102516.94;;;20.18;54.34
3294;BME280;1659;51.470;6.770;2023-05-25T07:39:43;102515.53;;;20.90;52.83
3294;BME280;1659;51.470;6.770;2023-05-25T07:42:09;102519.41;;;20.81;52.88
3294;BME280;1659;51.470;6.770;2023-05-25T07:44:36;102510.91;;;21.44;51.82
3294;BME280;1659;51.470;6.770;2023-05-25T07:47:03;102518.56;;;22.03;50.87
3294;BME280;1659;51.470;6.770;2023-05-25T07:49:30;102510.16;;;22.35;50.47
3294;BME280;1659;51.470;6.770;2023-05-25T07:51:58;102512.13;;;22.08;50.09
3294;BME280;1659;51.470;6.770;2023-05-25T07:54:27;102513.91;;;21.85;50.83
3294;BME280;1659;51.470;6.770;2023-05-25T07:56:54;102519.03;;;21.17;51.26
3294;BME280;1659;51.470;6.770;2023-05-25T07:59:20;102528.63;;;20.44;52.70
3294;BME280;1659;51.470;6.770;2023-05-25T08:01:47;102529.78;;;20.35;53.20
3294;BME280;1659;51.470;6.770;2023-05-25T08:04:13;102524.03;;;21.03;51.71
3294;BME280;1659;51.470;6.770;2023-05-25T08:06:40;102517.28;;;21.66;50.38
3294;BME280;1659;51.470;6.770;2023-05-25T08:09:08;102522.97;;;22.30;49.26
3294;BME280;1659;51.470;6.770;2023-05-25T08:11:35;102527.13;;;22.81;48.58
3294;BME280;1659;51.470;6.770;2023-05-25T08:14:01;102522.44;;;23.48;47.31
3294;BME280;1659;51.470;6.770;2023-05-25T08:16:28;102521.94;;;24.17;46.70
3294;BME280;1659;51.470;6.770;2023-05-25T08:18:54;102523.28;;;24.64;45.97
3294;BME280;1659;51.470;6.770;2023-05-25T08:21:21;102512.22;;;25.03;45.39
3294;BME280;1659;51.470;6.770;2023-05-25T08:23:48;102522.56;;;25.30;45.02
3294;BME280;1659;51.470;6.770;2023-05-25T08:26:16;102520.50;;;25.00;44.87
3294;BME280;1659;51.470;6.770;2023-05-25T08:28:43;102524.53;;;24.92;44.64
3294;BME280;1659;51.470;6.770;2023-05-25T08:31:09;102519.84;;;25.13;44.71
3294;BME280;1659;51.470;6.770;2023-05-25T08:33:36;102524.06;;;25.53;44.16
3294;BME280;1659;51.470;6.770;2023-05-25T08:36:03;102523.63;;;25.94;43.02
3294;BME280;1659;51.470;6.770;2023-05-25T08:38:29;102525.75;;;25.88;43.29
3294;BME280;1659;51.470;6.770;2023-05-25T08:41:02;102539.34;;;25.02;44.22
3294;BME280;1659;51.470;6.770;2023-05-25T08:43:32;102547.84;;;24.21;44.86
3294;BME280;1659;51.470;6.770;2023-05-25T08:46:03;102549.63;;;23.23;46.62
3294;BME280;1659;51.470;6.770;2023-05-25T08:48:32;102548.88;;;22.76;47.13
3294;BME280;1659;51.470;6.770;2023-05-25T09:47:53;102573.88;;;22.80;42.69
3294;BME280;1659;51.470;6.770;2023-05-25T09:50:20;102569.28;;;22.82;42.52
3294;BME280;1659;51.470;6.770;2023-05-25T09:52:46;102574.19;;;22.72;42.83
3294;BME280;1659;51.470;6.770;2023-05-25T09:55:14;102577.34;;;22.61;43.04
3294;BME280;1659;51.470;6.770;2023-05-25T09:57:42;102565.47;;;22.43;43.46
3294;BME280;1659;51.470;6.770;2023-05-25T10:00:09;102577.56;;;22.10;43.85
3294;BME280;1659;51.470;6.770;2023-05-25T10:02:37;102572.44;;;21.55;44.65
3294;BME280;1659;51.470;6.770;2023-05-25T10:05:05;102581.03;;;21.12;45.32
3294;BME280;1659;51.470;6.770;2023-05-25T10:07:35;102597.06;;;20.89;45.73
3294;BME280;1659;51.470;6.770;2023-05-25T10:10:05;102591.69;;;20.61;46.08
3294;BME280;1659;51.470;6.770;2023-05-25T10:12:33;102591.50;;;20.37;46.42
3294;BME280;1659;51.470;6.770;2023-05-25T10:15:02;102592.19;;;20.15;46.78
3294;BME280;1659;51.470;6.770;2023-05-25T10:17:31;102591.34;;;19.82;47.24
3294;BME280;1659;51.470;6.770;2023-05-25T10:20:02;102589.44;;;19.53;47.54
3294;BME280;1659;51.470;6.770;2023-05-25T10:22:35;102595.41;;;19.31;47.86
3294;BME280;1659;51.470;6.770;2023-05-25T10:25:08;102593.34;;;19.07;48.35
3294;BME280;1659;51.470;6.770;2023-05-25T10:27:39;102597.31;;;18.90;48.44
3294;BME280;1659;51.470;6.770;2023-05-25T10:30:08;102594.97;;;18.75;48.73
3294;BME280;1659;51.470;6.770;2023-05-25T10:32:36;102593.19;;;18.75;48.91
3294;BME280;1659;51.470;6.770;2023-05-25T10:35:04;102599.50;;;18.73;49.10
3294;BME280;1659;51.470;6.770;2023-05-25T10:37:33;102598.75;;;18.66;49.13
3294;BME280;1659;51.470;6.770;2023-05-25T10:40:01;102606.94;;;18.60;49.16
3294;BME280;1659;51.470;6.770;2023-05-25T10:42:29;102601.09;;;18.42;49.33
3294;BME280;1659;51.470;6.770;2023-05-25T10:44:56;102613.97;;;18.25;49.89
3294;BME280;1659;51.470;6.770;2023-05-25T10:47:23;102606.66;;;18.33;49.69
3294;BME280;1659;51.470;6.770;2023-05-25T10:49:52;102597.88;;;18.65;49.37
3294;BME280;1659;51.470;6.770;2023-05-25T10:52:19;102601.53;;;19.00;49.05
3294;BME280;1659;51.470;6.770;2023-05-25T10:54:47;102595.25;;;19.36;48.37
3294;BME280;1659;51.470;6.770;2023-05-25T10:57:17;102594.25;;;19.41;47.97
3294;BME280;1659;51.470;6.770;2023-05-25T10:59:48;102588.13;;;19.36;48.11
3294;BME280;1659;51.470;6.770;2023-05-25T11:02:16;102588.56;;;19.19;48.25
3294;BME280;1659;51.470;6.770;2023-05-25T11:04:46;102588.69;;;19.13;48.44
3294;BME280;1659;51.470;6.770;2023-05-25T11:07:15;102591.34;;;19.15;48.66
3294;BME280;1659;51.470;6.770;2023-05-25T11:09:56;102584.34;;;19.09;48.61
3294;BME280;1659;51.470;6.770;2023-05-25T11:12:23;102583.28;;;19.15;48.66
3294;BME280;1659;51.470;6.770;2023-05-25T11:15:21;102588.78;;;19.10;48.77
3294;BME280;1659;51.470;6.770;2023-05-25T11:17:57;102587.03;;;19.09;48.99
3294;BME280;1659;51.470;6.770;2023-05-25T11:20:28;102588.13;;;19.00;49.06
3294;BME280;1659;51.470;6.770;2023-05-25T11:22:58;102583.94;;;18.89;49.44
3294;BME280;1659;51.470;6.770;2023-05-25T11:25:41;102582.03;;;18.94;49.59
3294;BME280;1659;51.470;6.770;2023-05-25T11:28:08;102583.63;;;19.02;49.32
3294;BME280;1659;51.470;6.770;2023-05-25T11:30:37;102580.47;;;19.21;49.08
3294;BME280;1659;51.470;6.770;2023-05-25T11:33:03;102568.81;;;19.55;48.61
3294;BME280;1659;51.470;6.770;2023-05-25T11:35:32;102570.31;;;19.98;48.33
3294;BME280;1659;51.470;6.770;2023-05-25T11:38:03;102567.13;;;20.45;47.42
3294;BME280;1659;51.470;6.770;2023-05-25T11:40:30;102558.75;;;20.82;46.88
3294;BME280;1659;51.470;6.770;2023-05-25T11:42:58;102548.28;;;21.01;46.54
3294;BME280;1659;51.470;6.770;2023-05-25T11:45:27;102548.72;;;21.14;46.28
3294;BME280;1659;51.470;6.770;2023-05-25T11:47:54;102540.81;;;21.35;46.01
3294;BME280;1659;51.470;6.770;2023-05-25T11:50:21;102547.28;;;21.56;45.65
3294;BME280;1659;51.470;6.770;2023-05-25T11:52:47;102531.72;;;21.64;45.46
3294;BME280;1659;51.470;6.770;2023-05-25T11:55:14;102537.00;;;21.67;45.46
3294;BME280;1659;51.470;6.770;2023-05-25T11:57:41;102544.78;;;21.51;45.62
3294;BME280;1659;51.470;6.770;2023-05-25T12:00:10;102541.13;;;21.52;45.70
3294;BME280;1659;51.470;6.770;2023-05-25T12:02:38;102540.31;;;21.50;45.65
3294;BME280;1659;51.470;6.770;2023-05-25T12:05:06;102542.13;;;21.49;45.66
3294;BME280;1659;51.470;6.770;2023-05-25T12:07:33;102540.56;;;21.42;45.93
3294;BME280;1659;51.470;6.770;2023-05-25T12:10:04;102532.03;;;21.29;45.91
3294;BME280;1659;51.470;6.770;2023-05-25T12:12:37;102540.56;;;21.17;46.05
3294;BME280;1659;51.470;6.770;2023-05-25T12:15:04;102542.56;;;21.10;46.35
3294;BME280;1659;51.470;6.770;2023-05-25T12:17:32;102544.72;;;21.01;46.16
3294;BME280;1659;51.470;6.770;2023-05-25T12:19:59;102536.06;;;20.91;46.41
3294;BME280;1659;51.470;6.770;2023-05-25T12:22:26;102534.56;;;20.82;46.59
3294;BME280;1659;51.470;6.770;2023-05-25T12:24:53;102530.25;;;20.78;46.54
3294;BME280;1659;51.470;6.770;2023-05-25T12:27:19;102519.31;;;20.83;46.49
3294;BME280;1659;51.470;6.770;2023-05-25T12:29:47;102522.69;;;20.89;46.35
3294;BME280;1659;51.470;6.770;2023-05-25T12:32:14;102525.38;;;20.89;46.17
3294;BME280;1659;51.470;6.770;2023-05-25T12:34:42;102518.09;;;20.93;46.21
3294;BME280;1659;51.470;6.770;2023-05-25T12:37:16;102518.44;;;21.09;45.80
3294;BME280;1659;51.470;6.770;2023-05-25T12:39:44;102514.72;;;21.63;45.02
3294;BME280;1659;51.470;6.770;2023-05-25T12:42:12;102500.75;;;22.23;44.22
3294;BME280;1659;51.470;6.770;2023-05-25T12:44:40;102509.91;;;22.84;43.10
3294;BME280;1659;51.470;6.770;2023-05-25T12:47:11;102509.38;;;23.38;42.32
3294;BME280;1659;51.470;6.770;2023-05-25T12:49:39;102508.81;;;23.90;41.53
3294;BME280;1659;51.470;6.770;2023-05-25T12:52:08;102504.31;;;24.27;41.08
3294;BME280;1659;51.470;6.770;2023-05-25T12:54:40;102499.06;;;24.24;40.93
3294;BME280;1659;51.470;6.770;2023-05-25T12:57:09;102506.53;;;24.19;40.72
3294;BME280;1659;51.470;6.770;2023-05-25T12:59:37;102495.91;;;24.34;40.84
3294;BME280;1659;51.470;6.770;2023-05-25T13:02:05;102493.59;;;24.26;40.70
3294;BME280;1659;51.470;6.770;2023-05-25T13:04:32;102488.88;;;24.12;40.79
3294;BME280;1659;51.470;6.770;2023-05-25T13:06:59;102496.25;;;24.08;40.65
3294;BME280;1659;51.470;6.770;2023-05-25T13:09:27;102491.06;;;24.04;40.58
3294;BME280;1659;51.470;6.770;2023-05-25T13:11:54;102486.28;;;23.71;40.91
3294;BME280;1659;51.470;6.770;2023-05-25T13:14:21;102487.81;;;23.58;41.15
3294;BME280;1659;51.470;6.770;2023-05-25T13:16:48;102485.22;;;23.35;41.60
3294;BME280;1659;51.470;6.770;2023-05-25T13:19:15;102492.97;;;23.02;41.82
3294;BME280;1659;51.470;6.770;2023-05-25T13:21:42;102487.50;;;22.61;42.07
3294;BME280;1659;51.470;6.770;2023-05-25T13:24:08;102495.94;;;22.31;42.56
3294;BME280;1659;51.470;6.770;2023-05-25T13:26:36;102481.09;;;22.21;42.66
3294;BME280;1659;51.470;6.770;2023-05-25T13:29:03;102478.84;;;22.54;42.27
3294;BME280;1659;51.470;6.770;2023-05-25T13:31:30;102491.84;;;22.65;41.90
3294;BME280;1659;51.470;6.770;2023-05-25T13:33:56;102486.03;;;22.96;41.52
3294;BME280;1659;51.470;6.770;2023-05-25T13:36:24;102483.16;;;23.61;40.87
3294;BME280;1659;51.470;6.770;2023-05-25T13:38:50;102477.88;;;24.34;39.74
3294;BME280;1659;51.470;6.770;2023-05-25T13:41:17;102466.25;;;24.86;39.14
3294;BME280;1659;51.470;6.770;2023-05-25T13:43:45;102463.94;;;25.31;38.61
3294;BME280;1659;51.470;6.770;2023-05-25T13:46:11;102461.50;;;25.42;38.46
3294;BME280;1659;51.470;6.770;2023-05-25T13:48:38;102460.94;;;25.35;38.42
3294;BME280;1659;51.470;6.770;2023-05-25T13:51:05;102461.31;;;25.12;38.47
3294;BME280;1659;51.470;6.770;2023-05-25T13:53:31;102454.34;;;24.90;38.91
3294;BME280;1659;51.470;6.770;2023-05-25T13:55:58;102456.63;;;24.80;38.72
3294;BME280;1659;51.470;6.770;2023-05-25T13:58:25;102459.81;;;24.71;38.83
3294;BME280;1659;51.470;6.770;2023-05-25T14:00:53;102465.97;;;24.38;39.57
3294;BME280;1659;51.470;6.770;2023-05-25T14:03:19;102461.28;;;23.86;39.70
3294;BME280;1659;51.470;6.770;2023-05-25T14:05:46;102465.25;;;23.78;39.67
3294;BME280;1659;51.470;6.770;2023-05-25T14:08:13;102460.88;;;24.13;39.31
3294;BME280;1659;51.470;6.770;2023-05-25T14:10:39;102460.91;;;24.67;39.12
3294;BME280;1659;51.470;6.770;2023-05-25T14:13:07;102451.66;;;25.23;38.01
3294;BME280;1659;51.470;6.770;2023-05-25T14:15:34;102449.28;;;25.51;38.00